Погода Мартюховона неделю

Витебская область, Белоруссия

22 - 28 мая
  • 22мая
    Сегодня
    +12°
    +23°
    Небольшая облачность, возможен дождь с грозой
    ВремяПогодаТемператураВлажностьДавлениеВетер, м/сВероятность осадков
    00:00Облачно с прояснениями+15°C82 %746 мм3.4 м/с2 %
    03:00Облачно с прояснениями+14°C85 %746 мм3.0 м/с4 %
    06:00Облачно с прояснениями+13°C88 %746 мм2.8 м/с6 %
    09:00Ясно и безоблачно+18°C78 %747 мм2.2 м/с2 %
    12:00Небольшая облачность+22°C64 %747 мм2.8 м/с12 %
    15:00Небольшая облачность, возможен дождь с грозой+22°C61 %747 мм2.6 м/с55 %
    18:00Небольшая облачность, ливень+19°C81 %747 мм3.1 м/с61 %
    21:00Облачно с прояснениями+17°C88 %747 мм2.5 м/с6 %
  • 23мая
    Четверг
    +11°
    +23°
    Ясно и безоблачно
    ВремяПогодаТемператураВлажностьДавлениеВетер, м/сВероятность осадков
    00:00Практически безоблачно+15°C93 %747 мм3.0 м/с2 %
    03:00Практически безоблачно+14°C95 %748 мм3.4 м/с2 %
    06:00Ясно и безоблачно+13°C94 %748 мм4.3 м/с2 %
    09:00Ясно и безоблачно+18°C81 %749 мм4.6 м/с1 %
    12:00Ясно и безоблачно+22°C62 %750 мм5.7 м/с6 %
    15:00Ясно и безоблачно+23°C53 %750 мм6.1 м/с12 %
    18:00Ясно и безоблачно+22°C52 %750 мм5.8 м/с16 %
    21:00Ясно и безоблачно+18°C60 %751 мм5.2 м/с2 %
  • 24мая
    Пятница
    +10°
    +22°
    Ясно и безоблачно
    ВремяПогодаТемператураВлажностьДавлениеВетер, м/сВероятность осадков
    00:00Ясно и безоблачно+16°C67 %752 мм5.0 м/с2 %
    03:00Ясно и безоблачно+13°C71 %752 мм4.9 м/с1 %
    06:00Ясно и безоблачно+12°C68 %753 мм4.9 м/с1 %
    09:00Ясно и безоблачно+16°C59 %754 мм4.7 м/с2 %
    12:00Ясно и безоблачно+20°C53 %754 мм4.9 м/с2 %
    15:00Ясно и безоблачно+22°C48 %754 мм4.9 м/с2 %
    18:00Ясно и безоблачно+21°C49 %753 мм4.8 м/с3 %
    21:00Ясно и безоблачно+17°C64 %753 мм3.3 м/с3 %
  • 25мая
    Суббота
    +10°
    +24°
    Ясно и безоблачно
    ВремяПогодаТемператураВлажностьДавлениеВетер, м/сВероятность осадков
    00:00Ясно и безоблачно+14°C72 %753 мм3.6 м/с2 %
    03:00Ясно и безоблачно+12°C76 %753 мм3.8 м/с2 %
    06:00Ясно и безоблачно+11°C76 %753 мм4.0 м/с2 %
    09:00Ясно и безоблачно+17°C59 %753 мм3.9 м/с4 %
    12:00Ясно и безоблачно+21°C49 %753 мм3.9 м/с6 %
    15:00Ясно и безоблачно+23°C42 %752 мм4.5 м/с7 %
    18:00Ясно и безоблачно+23°C43 %751 мм4.1 м/с10 %
    21:00Ясно и безоблачно+17°C63 %751 мм2.8 м/с5 %
  • 26мая
    Воскресенье
    +10°
    +24°
    Практически безоблачно
    ВремяПогодаТемператураВлажностьДавлениеВетер, м/сВероятность осадков
    00:00Ясно и безоблачно+14°C64 %751 мм2.9 м/с3 %
    03:00Ясно и безоблачно+11°C72 %751 мм2.4 м/с6 %
    06:00Ясно и безоблачно+11°C78 %751 мм2.4 м/с6 %
    09:00Ясно и безоблачно+18°C63 %752 мм1.9 м/с4 %
    12:00Практически безоблачно+22°C39 %752 мм2.5 м/с3 %
    15:00Практически безоблачно+23°C40 %752 мм2.4 м/с4 %
    18:00Ясно и безоблачно+23°C41 %751 мм2.2 м/с6 %
    21:00Ясно и безоблачно+18°C69 %751 мм2.6 м/с2 %
Мы используем cookies
Соглашаюсь